sensor_id;sensor_type;location;lat;lon;timestamp;pressure;altitude;pressure_sealevel;temperature;humidity
38786;BME280;24535;45.508;12.252;2023-04-03T00:00:34;101278.13;;;16.21;54.81
38786;BME280;24535;45.508;12.252;2023-04-03T00:02:59;101275.72;;;16.18;54.99
38786;BME280;24535;45.508;12.252;2023-04-03T00:05:25;101284.66;;;16.17;54.82
38786;BME280;24535;45.508;12.252;2023-04-03T00:07:50;101281.50;;;16.12;54.78
38786;BME280;24535;45.508;12.252;2023-04-03T00:10:16;101283.56;;;16.08;54.57
38786;BME280;24535;45.508;12.252;2023-04-03T00:12:42;101286.50;;;16.05;54.67
38786;BME280;24535;45.508;12.252;2023-04-03T00:15:07;101284.22;;;16.00;54.78
38786;BME280;24535;45.508;12.252;2023-04-03T00:17:33;101280.00;;;15.98;55.10
38786;BME280;24535;45.508;12.252;2023-04-03T00:19:58;101280.97;;;15.97;55.40
38786;BME280;24535;45.508;12.252;2023-04-03T00:22:24;101280.47;;;15.92;54.99
38786;BME280;24535;45.508;12.252;2023-04-03T00:24:52;101273.97;;;15.85;55.35
38786;BME280;24535;45.508;12.252;2023-04-03T00:27:17;101272.91;;;15.76;55.01
38786;BME280;24535;45.508;12.252;2023-04-03T00:29:42;101268.81;;;15.72;55.39
38786;BME280;24535;45.508;12.252;2023-04-03T00:32:08;101280.75;;;15.66;55.59
38786;BME280;24535;45.508;12.252;2023-04-03T00:34:33;101277.47;;;15.63;55.12
38786;BME280;24535;45.508;12.252;2023-04-03T00:36:59;101273.59;;;15.55;55.85
38786;BME280;24535;45.508;12.252;2023-04-03T00:39:24;101270.47;;;15.50;55.88
38786;BME280;24535;45.508;12.252;2023-04-03T00:41:50;101275.16;;;15.47;55.47
38786;BME280;24535;45.508;12.252;2023-04-03T00:46:45;101273.84;;;15.41;55.76
38786;BME280;24535;45.508;12.252;2023-04-03T00:49:11;101278.44;;;15.39;55.53
38786;BME280;24535;45.508;12.252;2023-04-03T00:51:36;101273.47;;;15.34;55.05
38786;BME280;24535;45.508;12.252;2023-04-03T00:54:04;101275.53;;;15.31;56.08
38786;BME280;24535;45.508;12.252;2023-04-03T00:56:31;101275.91;;;15.26;55.65
38786;BME280;24535;45.508;12.252;2023-04-03T00:59:02;101282.41;;;15.22;56.53
38786;BME280;24535;45.508;12.252;2023-04-03T01:01:30;101270.25;;;15.20;55.90
38786;BME280;24535;45.508;12.252;2023-04-03T01:03:59;101270.47;;;15.17;55.76
38786;BME280;24535;45.508;12.252;2023-04-03T01:06:28;101272.38;;;15.15;55.87
38786;BME280;24535;45.508;12.252;2023-04-03T01:08:56;101276.97;;;15.13;55.23
38786;BME280;24535;45.508;12.252;2023-04-03T01:11:22;101280.84;;;15.08;55.87
38786;BME280;24535;45.508;12.252;2023-04-03T01:13:47;101270.34;;;15.07;55.95
38786;BME280;24535;45.508;12.252;2023-04-03T01:16:14;101280.22;;;15.05;55.62
38786;BME280;24535;45.508;12.252;2023-04-03T01:18:40;101276.84;;;15.03;55.58
38786;BME280;24535;45.508;12.252;2023-04-03T01:26:10;101267.53;;;14.97;55.16
38786;BME280;24535;45.508;12.252;2023-04-03T01:28:37;101270.19;;;14.97;55.19
38786;BME280;24535;45.508;12.252;2023-04-03T01:34:05;101272.72;;;14.99;55.30
38786;BME280;24535;45.508;12.252;2023-04-03T01:36:31;101278.91;;;14.99;55.51
38786;BME280;24535;45.508;12.252;2023-04-03T01:39:01;101272.63;;;15.00;56.03
38786;BME280;24535;45.508;12.252;2023-04-03T01:41:27;101270.56;;;15.04;55.07
38786;BME280;24535;45.508;12.252;2023-04-03T01:43:56;101270.22;;;15.08;55.66
38786;BME280;24535;45.508;12.252;2023-04-03T01:46:21;101264.69;;;15.12;55.11
38786;BME280;24535;45.508;12.252;2023-04-03T01:48:47;101271.44;;;15.16;55.68
38786;BME280;24535;45.508;12.252;2023-04-03T01:51:13;101264.78;;;15.21;55.41
38786;BME280;24535;45.508;12.252;2023-04-03T01:53:39;101261.06;;;15.24;54.84
38786;BME280;24535;45.508;12.252;2023-04-03T01:56:05;101259.97;;;15.26;54.41
38786;BME280;24535;45.508;12.252;2023-04-03T01:58:30;101270.22;;;15.31;54.78
38786;BME280;24535;45.508;12.252;2023-04-03T02:00:56;101270.00;;;15.34;54.56
38786;BME280;24535;45.508;12.252;2023-04-03T02:03:22;101275.19;;;15.36;54.58
38786;BME280;24535;45.508;12.252;2023-04-03T02:05:47;101264.44;;;15.37;54.77
38786;BME280;24535;45.508;12.252;2023-04-03T02:08:13;101258.28;;;15.37;54.89
38786;BME280;24535;45.508;12.252;2023-04-03T02:10:39;101259.13;;;15.37;54.49
38786;BME280;24535;45.508;12.252;2023-04-03T02:13:04;101260.72;;;15.40;54.59
38786;BME280;24535;45.508;12.252;2023-04-03T02:15:30;101260.81;;;15.38;54.57
38786;BME280;24535;45.508;12.252;2023-04-03T02:17:56;101253.81;;;15.37;54.71
38786;BME280;24535;45.508;12.252;2023-04-03T02:20:21;101256.34;;;15.39;54.51
38786;BME280;24535;45.508;12.252;2023-04-03T02:22:46;101258.91;;;15.40;54.59
38786;BME280;24535;45.508;12.252;2023-04-03T02:25:12;101257.78;;;15.43;54.88
38786;BME280;24535;45.508;12.252;2023-04-03T02:27:38;101257.69;;;15.44;55.26
38786;BME280;24535;45.508;12.252;2023-04-03T02:30:04;101256.72;;;15.45;55.28
38786;BME280;24535;45.508;12.252;2023-04-03T02:32:30;101255.75;;;15.46;54.48
38786;BME280;24535;45.508;12.252;2023-04-03T02:34:56;101254.06;;;15.45;54.17
38786;BME280;24535;45.508;12.252;2023-04-03T02:37:21;101257.78;;;15.43;54.58
38786;BME280;24535;45.508;12.252;2023-04-03T02:39:47;101257.09;;;15.41;54.68
38786;BME280;24535;45.508;12.252;2023-04-03T02:42:13;101252.25;;;15.34;54.34
38786;BME280;24535;45.508;12.252;2023-04-03T02:44:38;101259.59;;;15.31;53.94
38786;BME280;24535;45.508;12.252;2023-04-03T02:47:04;101252.97;;;15.25;54.03
38786;BME280;24535;45.508;12.252;2023-04-03T02:49:30;101254.31;;;15.20;54.21
38786;BME280;24535;45.508;12.252;2023-04-03T02:51:59;101246.72;;;15.15;54.42
38786;BME280;24535;45.508;12.252;2023-04-03T02:54:24;101249.59;;;15.12;54.70
38786;BME280;24535;45.508;12.252;2023-04-03T02:56:53;101255.25;;;15.07;54.77
38786;BME280;24535;45.508;12.252;2023-04-03T02:59:19;101253.91;;;15.02;54.60
38786;BME280;24535;45.508;12.252;2023-04-03T03:01:45;101248.13;;;14.97;55.09
38786;BME280;24535;45.508;12.252;2023-04-03T03:04:10;101259.94;;;14.93;54.89
38786;BME280;24535;45.508;12.252;2023-04-03T03:06:36;101260.16;;;14.90;55.41
38786;BME280;24535;45.508;12.252;2023-04-03T03:09:02;101260.75;;;14.82;55.55
38786;BME280;24535;45.508;12.252;2023-04-03T03:11:29;101264.50;;;14.79;55.84
38786;BME280;24535;45.508;12.252;2023-04-03T03:13:54;101260.50;;;14.74;55.64
38786;BME280;24535;45.508;12.252;2023-04-03T03:16:20;101263.97;;;14.74;55.47
38786;BME280;24535;45.508;12.252;2023-04-03T03:18:45;101258.94;;;14.71;55.88
38786;BME280;24535;45.508;12.252;2023-04-03T03:21:11;101260.00;;;14.69;55.35
38786;BME280;24535;45.508;12.252;2023-04-03T03:23:37;101258.41;;;14.66;55.98
38786;BME280;24535;45.508;12.252;2023-04-03T03:26:05;101262.03;;;14.65;55.72
38786;BME280;24535;45.508;12.252;2023-04-03T03:28:31;101259.50;;;14.64;55.90
38786;BME280;24535;45.508;12.252;2023-04-03T03:30:58;101271.09;;;14.63;56.35
38786;BME280;24535;45.508;12.252;2023-04-03T03:33:24;101274.59;;;14.63;56.26
38786;BME280;24535;45.508;12.252;2023-04-03T03:35:51;101275.66;;;14.61;55.93
38786;BME280;24535;45.508;12.252;2023-04-03T03:38:18;101271.19;;;14.61;55.73
38786;BME280;24535;45.508;12.252;2023-04-03T03:40:47;101268.88;;;14.56;55.79
38786;BME280;24535;45.508;12.252;2023-04-03T03:43:13;101261.28;;;14.52;56.24
38786;BME280;24535;45.508;12.252;2023-04-03T03:45:39;101265.22;;;14.46;55.88
38786;BME280;24535;45.508;12.252;2023-04-03T03:48:07;101279.66;;;14.42;56.53
38786;BME280;24535;45.508;12.252;2023-04-03T03:50:32;101283.38;;;14.40;56.64
38786;BME280;24535;45.508;12.252;2023-04-03T03:52:58;101283.25;;;14.41;57.51
38786;BME280;24535;45.508;12.252;2023-04-03T03:55:23;101283.38;;;14.40;56.50
38786;BME280;24535;45.508;12.252;2023-04-03T03:57:49;101281.56;;;14.40;57.21
38786;BME280;24535;45.508;12.252;2023-04-03T04:00:15;101284.22;;;14.40;57.26
38786;BME280;24535;45.508;12.252;2023-04-03T04:02:40;101280.84;;;14.38;57.22
38786;BME280;24535;45.508;12.252;2023-04-03T04:05:06;101285.41;;;14.36;57.46
38786;BME280;24535;45.508;12.252;2023-04-03T04:07:32;101293.22;;;14.38;57.01
38786;BME280;24535;45.508;12.252;2023-04-03T04:09:57;101289.63;;;14.39;57.42
38786;BME280;24535;45.508;12.252;2023-04-03T04:12:23;101289.72;;;14.37;56.75
38786;BME280;24535;45.508;12.252;2023-04-03T04:14:48;101290.81;;;14.34;56.81
38786;BME280;24535;45.508;12.252;2023-04-03T04:17:14;101297.91;;;14.34;56.82
38786;BME280;24535;45.508;12.252;2023-04-03T04:19:40;101292.09;;;14.29;56.84
38786;BME280;24535;45.508;12.252;2023-04-03T04:22:06;101292.44;;;14.24;56.72
38786;BME280;24535;45.508;12.252;2023-04-03T04:24:31;101285.81;;;14.19;57.04
38786;BME280;24535;45.508;12.252;2023-04-03T04:26:57;101294.94;;;14.15;57.26
38786;BME280;24535;45.508;12.252;2023-04-03T04:29:23;101289.09;;;14.09;56.61
38786;BME280;24535;45.508;12.252;2023-04-03T04:31:48;101301.63;;;14.07;56.84
38786;BME280;24535;45.508;12.252;2023-04-03T04:34:14;101298.56;;;14.01;57.47
38786;BME280;24535;45.508;12.252;2023-04-03T04:36:39;101296.16;;;13.98;57.22
38786;BME280;24535;45.508;12.252;2023-04-03T04:39:05;101302.41;;;13.97;57.52
38786;BME280;24535;45.508;12.252;2023-04-03T04:41:31;101302.63;;;13.94;57.78
38786;BME280;24535;45.508;12.252;2023-04-03T04:43:57;101300.91;;;13.93;57.69
38786;BME280;24535;45.508;12.252;2023-04-03T04:46:23;101307.94;;;13.94;58.13
38786;BME280;24535;45.508;12.252;2023-04-03T04:48:49;101307.06;;;13.93;58.25
38786;BME280;24535;45.508;12.252;2023-04-03T04:51:15;101300.72;;;13.96;58.13
38786;BME280;24535;45.508;12.252;2023-04-03T04:53:41;101301.75;;;13.93;57.36
38786;BME280;24535;45.508;12.252;2023-04-03T04:56:08;101309.63;;;13.95;57.77
38786;BME280;24535;45.508;12.252;2023-04-03T04:58:34;101306.22;;;13.93;57.53
38786;BME280;24535;45.508;12.252;2023-04-03T05:01:01;101307.31;;;13.90;57.73
38786;BME280;24535;45.508;12.252;2023-04-03T05:03:27;101307.31;;;13.90;57.87
38786;BME280;24535;45.508;12.252;2023-04-03T05:05:52;101312.69;;;13.89;58.37
38786;BME280;24535;45.508;12.252;2023-04-03T05:08:18;101309.94;;;13.90;58.50
38786;BME280;24535;45.508;12.252;2023-04-03T05:10:44;101309.00;;;13.91;58.15
38786;BME280;24535;45.508;12.252;2023-04-03T05:13:10;101321.06;;;13.95;57.91
38786;BME280;24535;45.508;12.252;2023-04-03T05:15:36;101321.78;;;13.97;58.08
38786;BME280;24535;45.508;12.252;2023-04-03T05:18:01;101313.00;;;13.97;57.63
38786;BME280;24535;45.508;12.252;2023-04-03T05:20:27;101319.88;;;13.99;57.68
38786;BME280;24535;45.508;12.252;2023-04-03T05:22:52;101333.97;;;14.00;57.58
38786;BME280;24535;45.508;12.252;2023-04-03T05:25:18;101326.97;;;13.99;57.79
38786;BME280;24535;45.508;12.252;2023-04-03T05:27:43;101335.03;;;13.97;58.43
38786;BME280;24535;45.508;12.252;2023-04-03T05:30:09;101328.66;;;14.00;57.81
38786;BME280;24535;45.508;12.252;2023-04-03T05:32:35;101336.28;;;14.04;58.32
38786;BME280;24535;45.508;12.252;2023-04-03T05:35:01;101331.81;;;14.05;58.05
38786;BME280;24535;45.508;12.252;2023-04-03T05:37:26;101331.63;;;14.08;58.21
38786;BME280;24535;45.508;12.252;2023-04-03T05:39:52;101333.94;;;14.13;58.17
38786;BME280;24535;45.508;12.252;2023-04-03T05:42:17;101343.53;;;14.26;58.50
38786;BME280;24535;45.508;12.252;2023-04-03T05:44:43;101344.22;;;14.41;58.50
38786;BME280;24535;45.508;12.252;2023-04-03T05:47:09;101354.22;;;14.62;57.95
38786;BME280;24535;45.508;12.252;2023-04-03T05:49:35;101352.53;;;14.84;58.17
38786;BME280;24535;45.508;12.252;2023-04-03T05:52:01;101349.47;;;15.13;58.01
38786;BME280;24535;45.508;12.252;2023-04-03T05:54:28;101351.69;;;15.42;57.42
38786;BME280;24535;45.508;12.252;2023-04-03T05:56:54;101342.59;;;15.68;55.99
38786;BME280;24535;45.508;12.252;2023-04-03T05:59:20;101349.44;;;15.93;54.90
38786;BME280;24535;45.508;12.252;2023-04-03T06:01:47;101346.03;;;16.14;54.66
38786;BME280;24535;45.508;12.252;2023-04-03T06:04:13;101351.28;;;16.36;53.83
38786;BME280;24535;45.508;12.252;2023-04-03T06:06:53;101350.72;;;16.65;52.04
38786;BME280;24535;45.508;12.252;2023-04-03T06:09:21;101343.38;;;16.89;52.83
38786;BME280;24535;45.508;12.252;2023-04-03T06:11:47;101351.22;;;17.02;51.52
38786;BME280;24535;45.508;12.252;2023-04-03T06:14:13;101349.50;;;17.01;50.41
38786;BME280;24535;45.508;12.252;2023-04-03T06:16:39;101356.59;;;16.91;49.97
38786;BME280;24535;45.508;12.252;2023-04-03T06:19:05;101363.03;;;16.77;49.57
38786;BME280;24535;45.508;12.252;2023-04-03T06:21:32;101372.00;;;16.65;49.61
38786;BME280;24535;45.508;12.252;2023-04-03T06:23:58;101369.66;;;16.50;49.52
38786;BME280;24535;45.508;12.252;2023-04-03T06:26:23;101369.56;;;16.41;49.40
38786;BME280;24535;45.508;12.252;2023-04-03T06:28:49;101371.63;;;16.26;48.70
38786;BME280;24535;45.508;12.252;2023-04-03T06:31:14;101370.81;;;16.14;48.92
38786;BME280;24535;45.508;12.252;2023-04-03T06:33:40;101381.34;;;16.04;48.82
38786;BME280;24535;45.508;12.252;2023-04-03T06:36:06;101378.78;;;15.92;48.80
38786;BME280;24535;45.508;12.252;2023-04-03T06:38:33;101385.31;;;15.88;49.41
38786;BME280;24535;45.508;12.252;2023-04-03T06:40:59;101381.09;;;15.85;49.30
38786;BME280;24535;45.508;12.252;2023-04-03T06:43:25;101384.47;;;15.87;49.43
38786;BME280;24535;45.508;12.252;2023-04-03T06:45:51;101375.91;;;15.95;49.49
38786;BME280;24535;45.508;12.252;2023-04-03T06:48:17;101369.97;;;16.02;49.46
38786;BME280;24535;45.508;12.252;2023-04-03T06:50:43;101382.75;;;16.20;49.35
38786;BME280;24535;45.508;12.252;2023-04-03T06:53:09;101385.41;;;16.20;47.89
38786;BME280;24535;45.508;12.252;2023-04-03T06:55:35;101392.31;;;16.11;47.74
38786;BME280;24535;45.508;12.252;2023-04-03T06:58:01;101386.06;;;16.01;47.67
38786;BME280;24535;45.508;12.252;2023-04-03T07:00:27;101394.72;;;15.92;47.60
38786;BME280;24535;45.508;12.252;2023-04-03T07:02:53;101384.59;;;15.86;47.86
38786;BME280;24535;45.508;12.252;2023-04-03T07:05:19;101387.25;;;15.86;47.95
38786;BME280;24535;45.508;12.252;2023-04-03T07:07:44;101394.63;;;15.93;47.58
38786;BME280;24535;45.508;12.252;2023-04-03T07:10:10;101391.25;;;16.02;47.86
38786;BME280;24535;45.508;12.252;2023-04-03T07:12:36;101389.50;;;16.24;47.72
38786;BME280;24535;45.508;12.252;2023-04-03T07:15:04;101394.34;;;16.41;47.10
38786;BME280;24535;45.508;12.252;2023-04-03T07:17:30;101402.03;;;16.44;45.83
38786;BME280;24535;45.508;12.252;2023-04-03T07:19:56;101400.88;;;16.37;45.21
38786;BME280;24535;45.508;12.252;2023-04-03T07:22:22;101407.66;;;16.30;45.59
38786;BME280;24535;45.508;12.252;2023-04-03T07:24:47;101409.56;;;16.28;46.10
38786;BME280;24535;45.508;12.252;2023-04-03T07:27:13;101415.84;;;16.27;45.41
38786;BME280;24535;45.508;12.252;2023-04-03T07:29:38;101408.41;;;16.21;45.03
38786;BME280;24535;45.508;12.252;2023-04-03T07:32:04;101413.22;;;16.16;45.05
38786;BME280;24535;45.508;12.252;2023-04-03T07:34:31;101419.50;;;16.03;45.20
38786;BME280;24535;45.508;12.252;2023-04-03T07:36:58;101422.88;;;15.94;44.68
38786;BME280;24535;45.508;12.252;2023-04-03T07:39:24;101432.56;;;15.84;44.83
38786;BME280;24535;45.508;12.252;2023-04-03T07:41:50;101423.25;;;15.78;45.24
38786;BME280;24535;45.508;12.252;2023-04-03T07:44:15;101424.81;;;15.81;45.17
38786;BME280;24535;45.508;12.252;2023-04-03T07:46:41;101435.44;;;15.81;44.83
38786;BME280;24535;45.508;12.252;2023-04-03T07:49:08;101437.59;;;15.87;44.88
38786;BME280;24535;45.508;12.252;2023-04-03T07:51:33;101426.41;;;16.06;45.29
38786;BME280;24535;45.508;12.252;2023-04-03T07:53:59;101416.59;;;16.29;44.78
38786;BME280;24535;45.508;12.252;2023-04-03T07:56:25;101425.03;;;16.45;44.72
38786;BME280;24535;45.508;12.252;2023-04-03T07:58:59;101426.72;;;16.46;42.83
38786;BME280;24535;45.508;12.252;2023-04-03T08:01:25;101418.97;;;16.43;43.13
38786;BME280;24535;45.508;12.252;2023-04-03T08:10:36;101423.75;;;16.83;44.42
38786;BME280;24535;45.508;12.252;2023-04-03T08:13:03;101420.91;;;16.96;44.20
38786;BME280;24535;45.508;12.252;2023-04-03T08:15:30;101417.97;;;17.10;43.95
38786;BME280;24535;45.508;12.252;2023-04-03T08:17:56;101415.06;;;17.34;44.31
38786;BME280;24535;45.508;12.252;2023-04-03T08:20:21;101421.06;;;17.57;43.36
38786;BME280;24535;45.508;12.252;2023-04-03T08:22:47;101420.38;;;17.76;43.41
38786;BME280;24535;45.508;12.252;2023-04-03T08:25:12;101426.25;;;18.00;43.37
38786;BME280;24535;45.508;12.252;2023-04-03T08:27:38;101433.78;;;18.26;42.42
38786;BME280;24535;45.508;12.252;2023-04-03T08:30:04;101424.56;;;18.49;42.16
38786;BME280;24535;45.508;12.252;2023-04-03T08:32:30;101413.13;;;18.78;41.77
38786;BME280;24535;45.508;12.252;2023-04-03T08:34:56;101422.84;;;19.18;42.00
38786;BME280;24535;45.508;12.252;2023-04-03T08:37:21;101425.59;;;19.55;41.89
38786;BME280;24535;45.508;12.252;2023-04-03T08:39:47;101424.97;;;19.81;41.54
38786;BME280;24535;45.508;12.252;2023-04-03T08:48:03;101421.31;;;20.19;38.28
38786;BME280;24535;45.508;12.252;2023-04-03T08:50:47;101417.38;;;20.13;37.42
38786;BME280;24535;45.508;12.252;2023-04-03T08:53:25;101423.56;;;20.23;38.50
38786;BME280;24535;45.508;12.252;2023-04-03T08:55:54;101418.00;;;20.35;37.66
38786;BME280;24535;45.508;12.252;2023-04-03T08:58:29;101418.94;;;20.43;37.32
38786;BME280;24535;45.508;12.252;2023-04-03T09:01:01;101417.16;;;20.62;37.44
38786;BME280;24535;45.508;12.252;2023-04-03T09:03:31;101426.88;;;20.81;36.98
38786;BME280;24535;45.508;12.252;2023-04-03T09:06:00;101422.22;;;20.83;35.40
38786;BME280;24535;45.508;12.252;2023-04-03T09:08:31;101413.94;;;20.76;35.73
38786;BME280;24535;45.508;12.252;2023-04-03T09:14:41;101428.50;;;20.91;35.41
38786;BME280;24535;45.508;12.252;2023-04-03T09:20:03;101419.44;;;21.10;36.08
38786;BME280;24535;45.508;12.252;2023-04-03T09:22:38;101409.25;;;21.14;36.00
38786;BME280;24535;45.508;12.252;2023-04-03T09:27:43;101420.50;;;21.17;35.56
38786;BME280;24535;45.508;12.252;2023-04-03T09:30:19;101414.16;;;21.18;34.82
38786;BME280;24535;45.508;12.252;2023-04-03T09:32:51;101414.38;;;21.25;35.06
38786;BME280;24535;45.508;12.252;2023-04-03T09:35:24;101423.44;;;21.24;33.89
38786;BME280;24535;45.508;12.252;2023-04-03T09:37:53;101416.84;;;21.18;34.18
38786;BME280;24535;45.508;12.252;2023-04-03T09:42:58;101411.81;;;21.15;34.08
38786;BME280;24535;45.508;12.252;2023-04-03T09:48:20;101405.84;;;21.04;32.95
38786;BME280;24535;45.508;12.252;2023-04-03T09:51:01;101408.44;;;20.95;32.85
38786;BME280;24535;45.508;12.252;2023-04-03T09:53:34;101404.88;;;20.87;33.60
38786;BME280;24535;45.508;12.252;2023-04-03T09:56:48;101411.66;;;20.81;33.82
38786;BME280;24535;45.508;12.252;2023-04-03T10:02:23;101396.50;;;20.27;33.63
38786;BME280;24535;45.508;12.252;2023-04-03T10:04:54;101400.50;;;20.13;34.49
38786;BME280;24535;45.508;12.252;2023-04-03T10:07:45;101392.81;;;20.00;34.22
38786;BME280;24535;45.508;12.252;2023-04-03T10:12:40;101400.41;;;19.77;34.57
38786;BME280;24535;45.508;12.252;2023-04-03T10:15:14;101393.38;;;19.66;34.26
38786;BME280;24535;45.508;12.252;2023-04-03T10:17:51;101386.06;;;19.59;34.57
38786;BME280;24535;45.508;12.252;2023-04-03T10:20:43;101386.50;;;19.54;34.08
38786;BME280;24535;45.508;12.252;2023-04-03T10:23:53;101393.56;;;19.45;34.12
38786;BME280;24535;45.508;12.252;2023-04-03T10:26:18;101392.16;;;19.32;34.88
38786;BME280;24535;45.508;12.252;2023-04-03T10:29:28;101388.53;;;19.23;34.48
38786;BME280;24535;45.508;12.252;2023-04-03T10:34:50;101381.94;;;18.98;34.49
38786;BME280;24535;45.508;12.252;2023-04-03T10:46:01;101375.28;;;18.63;35.13
38786;BME280;24535;45.508;12.252;2023-04-03T10:53:55;101366.03;;;18.48;35.15
38786;BME280;24535;45.508;12.252;2023-04-03T10:56:32;101368.66;;;18.38;35.54
38786;BME280;24535;45.508;12.252;2023-04-03T10:59:07;101359.09;;;18.26;35.96
38786;BME280;24535;45.508;12.252;2023-04-03T11:01:35;101354.16;;;18.21;36.18
38786;BME280;24535;45.508;12.252;2023-04-03T11:04:04;101349.53;;;18.14;34.88
38786;BME280;24535;45.508;12.252;2023-04-03T11:06:39;101350.78;;;18.10;35.19
38786;BME280;24535;45.508;12.252;2023-04-03T11:09:30;101342.19;;;18.06;36.85
38786;BME280;24535;45.508;12.252;2023-04-03T11:12:06;101341.50;;;18.04;35.59
38786;BME280;24535;45.508;12.252;2023-04-03T11:14:37;101336.28;;;18.02;36.03
38786;BME280;24535;45.508;12.252;2023-04-03T11:19:57;101326.03;;;17.98;35.07
38786;BME280;24535;45.508;12.252;2023-04-03T11:22:27;101321.94;;;17.94;35.54
38786;BME280;24535;45.508;12.252;2023-04-03T11:25:19;101310.72;;;17.90;34.55
38786;BME280;24535;45.508;12.252;2023-04-03T11:33:04;101300.50;;;17.95;35.37
38786;BME280;24535;45.508;12.252;2023-04-03T11:35:31;101304.84;;;17.96;35.37
38786;BME280;24535;45.508;12.252;2023-04-03T11:37:59;101289.44;;;18.00;35.46
38786;BME280;24535;45.508;12.252;2023-04-03T11:40:29;101300.09;;;18.00;34.53
38786;BME280;24535;45.508;12.252;2023-04-03T11:43:27;101292.34;;;17.87;34.02
38786;BME280;24535;45.508;12.252;2023-04-03T11:46:02;101294.38;;;17.74;34.15
38786;BME280;24535;45.508;12.252;2023-04-03T11:53:40;101273.78;;;17.45;34.76
38786;BME280;24535;45.508;12.252;2023-04-03T12:01:47;101280.25;;;17.43;34.56
38786;BME280;24535;45.508;12.252;2023-04-03T12:04:15;101266.19;;;17.41;34.58
38786;BME280;24535;45.508;12.252;2023-04-03T12:09:23;101259.06;;;17.41;34.89
38786;BME280;24535;45.508;12.252;2023-04-03T12:11:49;101262.69;;;17.40;35.11
38786;BME280;24535;45.508;12.252;2023-04-03T12:14:16;101258.66;;;17.46;35.23
38786;BME280;24535;45.508;12.252;2023-04-03T12:16:46;101250.78;;;17.44;35.21
38786;BME280;24535;45.508;12.252;2023-04-03T12:24:31;101251.88;;;17.32;35.38
38786;BME280;24535;45.508;12.252;2023-04-03T12:46:47;101237.31;;;17.36;34.46
38786;BME280;24535;45.508;12.252;2023-04-03T12:51:54;101223.56;;;17.31;35.40
38786;BME280;24535;45.508;12.252;2023-04-03T12:54:26;101228.63;;;17.34;35.57
38786;BME280;24535;45.508;12.252;2023-04-03T12:57:12;101223.56;;;17.31;34.29
38786;BME280;24535;45.508;12.252;2023-04-03T12:59:38;101226.22;;;17.31;34.74
38786;BME280;24535;45.508;12.252;2023-04-03T13:02:25;101221.00;;;17.29;35.34
38786;BME280;24535;45.508;12.252;2023-04-03T13:04:53;101214.16;;;17.27;34.92
38786;BME280;24535;45.508;12.252;2023-04-03T13:07:34;101215.97;;;17.26;34.86
38786;BME280;24535;45.508;12.252;2023-04-03T13:10:14;101209.66;;;17.27;35.40
38786;BME280;24535;45.508;12.252;2023-04-03T13:13:13;101194.78;;;17.25;35.34
38786;BME280;24535;45.508;12.252;2023-04-03T13:15:43;101197.59;;;17.23;35.17
38786;BME280;24535;45.508;12.252;2023-04-03T13:18:35;101193.25;;;17.22;35.37
38786;BME280;24535;45.508;12.252;2023-04-03T13:23:30;101191.69;;;17.20;34.92
38786;BME280;24535;45.508;12.252;2023-04-03T13:25:57;101195.47;;;17.17;35.31
38786;BME280;24535;45.508;12.252;2023-04-03T13:28:26;101187.03;;;17.12;35.58
38786;BME280;24535;45.508;12.252;2023-04-03T13:31:08;101200.19;;;17.04;34.31
38786;BME280;24535;45.508;12.252;2023-04-03T13:33:37;101192.00;;;16.96;34.79
38786;BME280;24535;45.508;12.252;2023-04-03T13:36:28;101186.09;;;16.92;35.33
38786;BME280;24535;45.508;12.252;2023-04-03T13:39:05;101188.06;;;16.90;35.33
38786;BME280;24535;45.508;12.252;2023-04-03T13:41:37;101182.03;;;16.88;35.60
38786;BME280;24535;45.508;12.252;2023-04-03T13:46:52;101183.34;;;16.94;35.13
38786;BME280;24535;45.508;12.252;2023-04-03T13:49:34;101183.88;;;16.97;36.32
38786;BME280;24535;45.508;12.252;2023-04-03T13:52:03;101182.78;;;17.00;35.25
38786;BME280;24535;45.508;12.252;2023-04-03T13:54:52;101178.88;;;17.04;35.37
38786;BME280;24535;45.508;12.252;2023-04-03T13:57:19;101172.72;;;17.03;35.12
38786;BME280;24535;45.508;12.252;2023-04-03T13:59:45;101184.94;;;17.06;35.46
38786;BME280;24535;45.508;12.252;2023-04-03T14:02:34;101175.38;;;17.03;35.09
38786;BME280;24535;45.508;12.252;2023-04-03T14:05:01;101178.56;;;16.97;34.76
38786;BME280;24535;45.508;12.252;2023-04-03T14:07:29;101167.22;;;16.95;35.12
38786;BME280;24535;45.508;12.252;2023-04-03T14:09:56;101190.59;;;16.92;34.80
38786;BME280;24535;45.508;12.252;2023-04-03T14:12:35;101169.56;;;16.89;34.50
38786;BME280;24535;45.508;12.252;2023-04-03T14:15:05;101160.03;;;16.86;35.17
38786;BME280;24535;45.508;12.252;2023-04-03T14:17:36;101171.53;;;16.87;35.11
38786;BME280;24535;45.508;12.252;2023-04-03T14:20:02;101165.38;;;16.86;35.21
38786;BME280;24535;45.508;12.252;2023-04-03T14:22:31;101166.19;;;16.87;34.49
38786;BME280;24535;45.508;12.252;2023-04-03T14:24:57;101166.19;;;16.87;34.52
38786;BME280;24535;45.508;12.252;2023-04-03T14:27:43;101158.22;;;16.87;34.97
38786;BME280;24535;45.508;12.252;2023-04-03T14:30:20;101185.25;;;16.92;34.96
38786;BME280;24535;45.508;12.252;2023-04-03T14:32:46;101166.06;;;16.88;34.07
38786;BME280;24535;45.508;12.252;2023-04-03T14:35:12;101173.06;;;16.89;34.77
38786;BME280;24535;45.508;12.252;2023-04-03T14:37:38;101178.53;;;16.88;35.13
38786;BME280;24535;45.508;12.252;2023-04-03T14:40:06;101152.75;;;16.88;34.92
38786;BME280;24535;45.508;12.252;2023-04-03T14:42:35;101167.72;;;16.89;34.56